RYR363C LEMI-EGHH
Flight info
| Callsign | RYR363C |
|---|---|
| Flight time | 2h 4m |
| Altitude | 36000 |
| Route | ALT N851 MITOS N608 COMPI Y90 USKAR DCT MOPAS DCT GIROM DCT AGN DCT SECHE DCT UVELI DCT CNA DCT MANAK UY110 ORIST Y110 THRED |
| Aircraft | B738/M-SDE3FGILRWY/SB1 |
Departure
| Time | 2026-04-21 09:42 |
|---|---|
| Airport | Region of Murcia International Airport (LEMI) |
Arrival
| Time | 2026-04-21 11:47 |
|---|---|
| Airport | Bournemouth Airport (EGHH) |
| Time | Latitude | Longitude | Altitude | Speed | Heading |
|---|---|---|---|---|---|
| 2026-04-21 09:23 | 37.80326 | -1.13159 | 646 ft | 0 kts | 315° |
| 2026-04-21 09:32 | 37.80318 | -1.13149 | 646 ft | 2 kts | 315° |
| 2026-04-21 09:33 | 37.80307 | -1.13135 | 647 ft | 2 kts | 315° |
| 2026-04-21 09:33 | 37.80295 | -1.13120 | 646 ft | 2 kts | 314° |
| 2026-04-21 09:33 | 37.80285 | -1.13103 | 646 ft | 2 kts | 284° |
| 2026-04-21 09:33 | 37.80284 | -1.13082 | 646 ft | 2 kts | 252° |
| 2026-04-21 09:34 | 37.80291 | -1.13065 | 648 ft | 1 kts | 233° |
| 2026-04-21 09:34 | 37.80293 | -1.13062 | 648 ft | 0 kts | 229° |
| 2026-04-21 09:36 | 37.80283 | -1.13075 | 646 ft | 4 kts | 226° |
| 2026-04-21 09:37 | 37.80255 | -1.13112 | 646 ft | 8 kts | 226° |
| 2026-04-21 09:37 | 37.80206 | -1.13157 | 648 ft | 9 kts | 196° |
| 2026-04-21 09:37 | 37.80153 | -1.13127 | 646 ft | 9 kts | 135° |
| 2026-04-21 09:37 | 37.80120 | -1.13060 | 648 ft | 10 kts | 94° |
| 2026-04-21 09:38 | 37.80156 | -1.12986 | 646 ft | 12 kts | 46° |
| 2026-04-21 09:38 | 37.80224 | -1.12896 | 645 ft | 16 kts | 45° |
| 2026-04-21 09:38 | 37.80307 | -1.12791 | 646 ft | 17 kts | 45° |
| 2026-04-21 09:38 | 37.80399 | -1.12673 | 646 ft | 21 kts | 45° |
| 2026-04-21 09:39 | 37.80508 | -1.12531 | 647 ft | 24 kts | 46° |
| 2026-04-21 09:39 | 37.80629 | -1.12376 | 649 ft | 25 kts | 45° |
| 2026-04-21 09:39 | 37.80757 | -1.12212 | 646 ft | 29 kts | 45° |
| 2026-04-21 09:39 | 37.80900 | -1.12029 | 645 ft | 29 kts | 44° |
| 2026-04-21 09:40 | 37.81040 | -1.11847 | 647 ft | 28 kts | 46° |
| 2026-04-21 09:40 | 37.81171 | -1.11679 | 648 ft | 26 kts | 45° |
| 2026-04-21 09:40 | 37.81288 | -1.11528 | 650 ft | 21 kts | 45° |
| 2026-04-21 09:40 | 37.81350 | -1.11437 | 649 ft | 10 kts | 72° |
| 2026-04-21 09:41 | 37.81323 | -1.11369 | 648 ft | 9 kts | 134° |
| 2026-04-21 09:41 | 37.81280 | -1.11313 | 647 ft | 9 kts | 133° |
| 2026-04-21 09:41 | 37.81230 | -1.11292 | 646 ft | 9 kts | 221° |
| 2026-04-21 09:41 | 37.81165 | -1.11375 | 648 ft | 32 kts | 225° |
| 2026-04-21 09:42 | 37.80828 | -1.11810 | 642 ft | 106 kts | 225° |
| 2026-04-21 09:42 | 37.80161 | -1.12665 | 646 ft | 165 kts | 225° |
| 2026-04-21 09:42 | 37.79311 | -1.13759 | 1232 ft | 173 kts | 224° |
| 2026-04-21 09:42 | 37.78369 | -1.14748 | 2048 ft | 178 kts | 214° |
| 2026-04-21 09:43 | 37.77301 | -1.15716 | 2528 ft | 208 kts | 215° |
| 2026-04-21 09:43 | 37.76070 | -1.16807 | 3125 ft | 221 kts | 213° |
| 2026-04-21 09:43 | 37.74781 | -1.17920 | 3869 ft | 227 kts | 213° |
| 2026-04-21 09:43 | 37.73434 | -1.19174 | 4345 ft | 251 kts | 219° |
| 2026-04-21 09:44 | 37.72120 | -1.20663 | 5231 ft | 255 kts | 224° |
| 2026-04-21 09:44 | 37.71230 | -1.22591 | 6050 ft | 262 kts | 257° |
| 2026-04-21 09:44 | 37.71298 | -1.24899 | 6899 ft | 268 kts | 287° |
| 2026-04-21 09:44 | 37.71828 | -1.26315 | 7495 ft | 269 kts | 304° |
| 2026-04-21 09:45 | 37.73771 | -1.28301 | 8372 ft | 282 kts | 339° |
| 2026-04-21 09:45 | 37.75086 | -1.28659 | 8898 ft | 289 kts | 356° |
| 2026-04-21 09:45 | 37.77056 | -1.28233 | 9649 ft | 298 kts | 23° |
| 2026-04-21 09:45 | 37.78780 | -1.26745 | 10394 ft | 307 kts | 41° |
| 2026-04-21 09:46 | 37.80327 | -1.24733 | 10646 ft | 332 kts | 47° |
| 2026-04-21 09:46 | 37.81891 | -1.22449 | 10948 ft | 352 kts | 49° |
| 2026-04-21 09:46 | 37.83488 | -1.20052 | 11574 ft | 359 kts | 49° |
| 2026-04-21 09:46 | 37.85105 | -1.17633 | 12393 ft | 361 kts | 49° |
| 2026-04-21 09:47 | 37.86747 | -1.15205 | 13171 ft | 364 kts | 49° |
| 2026-04-21 09:47 | 37.88388 | -1.12799 | 13880 ft | 369 kts | 49° |
| 2026-04-21 09:47 | 37.90065 | -1.10360 | 14568 ft | 372 kts | 48° |
| 2026-04-21 09:47 | 37.91774 | -1.07885 | 15244 ft | 376 kts | 48° |
| 2026-04-21 09:48 | 37.93515 | -1.05370 | 15867 ft | 381 kts | 48° |
| 2026-04-21 09:48 | 37.95276 | -1.02827 | 16525 ft | 385 kts | 48° |
| 2026-04-21 09:48 | 37.97061 | -1.00250 | 17187 ft | 389 kts | 48° |
| 2026-04-21 09:48 | 37.98836 | -0.97667 | 17821 ft | 394 kts | 48° |
| 2026-04-21 09:49 | 38.00630 | -0.95040 | 18417 ft | 398 kts | 48° |
| 2026-04-21 09:49 | 38.02435 | -0.92404 | 18987 ft | 401 kts | 48° |
| 2026-04-21 09:49 | 38.04278 | -0.89722 | 19573 ft | 405 kts | 48° |
| 2026-04-21 09:49 | 38.06145 | -0.87013 | 20137 ft | 408 kts | 47° |
| 2026-04-21 09:50 | 38.08030 | -0.84282 | 20690 ft | 412 kts | 47° |
| 2026-04-21 09:50 | 38.09284 | -0.82467 | 21041 ft | 414 kts | 47° |
| 2026-04-21 09:50 | 38.13745 | -0.76002 | 22281 ft | 422 kts | 47° |
| 2026-04-21 09:51 | 38.15695 | -0.73171 | 22803 ft | 426 kts | 47° |
| 2026-04-21 09:51 | 38.17661 | -0.70315 | 23334 ft | 429 kts | 47° |
| 2026-04-21 09:51 | 38.19630 | -0.67451 | 23788 ft | 432 kts | 47° |
| 2026-04-21 09:51 | 38.21622 | -0.64552 | 24220 ft | 435 kts | 47° |
| 2026-04-21 09:52 | 38.23603 | -0.61672 | 24643 ft | 438 kts | 46° |
| 2026-04-21 09:52 | 38.25932 | -0.59196 | 25008 ft | 438 kts | 27° |
| 2026-04-21 09:52 | 38.28746 | -0.57748 | 25451 ft | 434 kts | 11° |
| 2026-04-21 09:52 | 38.31725 | -0.57347 | 25863 ft | 430 kts | 354° |
| 2026-04-21 09:53 | 38.34714 | -0.57606 | 26283 ft | 431 kts | 352° |
| 2026-04-21 09:53 | 38.37720 | -0.57946 | 26639 ft | 434 kts | 352° |
| 2026-04-21 09:53 | 38.40745 | -0.58312 | 26996 ft | 437 kts | 351° |
| 2026-04-21 09:53 | 38.43744 | -0.58670 | 27389 ft | 439 kts | 351° |
| 2026-04-21 09:54 | 38.46792 | -0.59021 | 27794 ft | 441 kts | 352° |
| 2026-04-21 09:54 | 38.49862 | -0.59362 | 28164 ft | 443 kts | 352° |
| 2026-04-21 09:54 | 38.52948 | -0.59694 | 28511 ft | 446 kts | 352° |
| 2026-04-21 09:54 | 38.56054 | -0.60022 | 28871 ft | 449 kts | 352° |
| 2026-04-21 09:55 | 38.59176 | -0.60347 | 29214 ft | 450 kts | 352° |
| 2026-04-21 09:55 | 38.62276 | -0.60669 | 29550 ft | 453 kts | 352° |
| 2026-04-21 09:55 | 38.65442 | -0.60997 | 29885 ft | 455 kts | 352° |
| 2026-04-21 09:55 | 38.68607 | -0.61324 | 30238 ft | 455 kts | 352° |
| 2026-04-21 09:56 | 38.71766 | -0.61651 | 30663 ft | 453 kts | 352° |
| 2026-04-21 09:56 | 38.74880 | -0.61974 | 31087 ft | 451 kts | 352° |
| 2026-04-21 09:56 | 38.78013 | -0.62299 | 31446 ft | 451 kts | 352° |
| 2026-04-21 09:56 | 38.81144 | -0.62626 | 31761 ft | 451 kts | 352° |
| 2026-04-21 09:57 | 38.84281 | -0.62954 | 32124 ft | 451 kts | 352° |
| 2026-04-21 09:57 | 38.87371 | -0.63277 | 32504 ft | 449 kts | 352° |
| 2026-04-21 09:57 | 38.90479 | -0.63602 | 32863 ft | 449 kts | 351° |
| 2026-04-21 09:57 | 38.93609 | -0.63930 | 33159 ft | 449 kts | 351° |
| 2026-04-21 09:58 | 38.96734 | -0.64258 | 33498 ft | 448 kts | 351° |
| 2026-04-21 09:58 | 38.99832 | -0.64584 | 33871 ft | 446 kts | 351° |
| 2026-04-21 09:58 | 39.02900 | -0.64906 | 34169 ft | 446 kts | 351° |
| 2026-04-21 09:58 | 39.05999 | -0.65231 | 34424 ft | 445 kts | 351° |
| 2026-04-21 09:59 | 39.09091 | -0.65557 | 34706 ft | 445 kts | 351° |
| 2026-04-21 09:59 | 39.11133 | -0.65772 | 34906 ft | 444 kts | 351° |
| 2026-04-21 10:00 | 39.12760 | -0.65943 | 35064 ft | 443 kts | 351° |
| 2026-04-21 10:01 | 39.15060 | -0.66186 | 35253 ft | 443 kts | 351° |
| 2026-04-21 10:01 | 39.18145 | -0.66511 | 35494 ft | 443 kts | 351° |
| 2026-04-21 10:01 | 39.21220 | -0.66836 | 35755 ft | 442 kts | 351° |
| 2026-04-21 10:01 | 39.24286 | -0.67161 | 35958 ft | 443 kts | 351° |
| 2026-04-21 10:02 | 39.33555 | -0.68145 | 35927 ft | 446 kts | 351° |
| 2026-04-21 10:03 | 39.39704 | -0.68794 | 35935 ft | 441 kts | 351° |
| 2026-04-21 10:03 | 39.45823 | -0.69443 | 35939 ft | 440 kts | 351° |
| 2026-04-21 10:04 | 39.51918 | -0.70093 | 35941 ft | 439 kts | 351° |
| 2026-04-21 10:04 | 39.57984 | -0.70741 | 35944 ft | 439 kts | 351° |
| 2026-04-21 10:05 | 39.64081 | -0.71394 | 35944 ft | 440 kts | 351° |
| 2026-04-21 10:05 | 39.70258 | -0.72057 | 35951 ft | 447 kts | 351° |
| 2026-04-21 10:06 | 39.76534 | -0.72734 | 35954 ft | 457 kts | 351° |
| 2026-04-21 10:06 | 39.82876 | -0.73415 | 35948 ft | 461 kts | 351° |
| 2026-04-21 10:07 | 39.89251 | -0.74098 | 35938 ft | 457 kts | 351° |
| 2026-04-21 10:07 | 39.95539 | -0.74770 | 35930 ft | 452 kts | 351° |
| 2026-04-21 10:08 | 40.01809 | -0.75448 | 35941 ft | 451 kts | 351° |
| 2026-04-21 10:08 | 40.08072 | -0.76128 | 35936 ft | 451 kts | 351° |
| 2026-04-21 10:09 | 40.14338 | -0.76808 | 35950 ft | 451 kts | 351° |
| 2026-04-21 10:09 | 40.20616 | -0.77491 | 35937 ft | 452 kts | 351° |
| 2026-04-21 10:10 | 40.26867 | -0.78172 | 35945 ft | 453 kts | 351° |
| 2026-04-21 10:10 | 40.33150 | -0.78857 | 35941 ft | 454 kts | 351° |
| 2026-04-21 10:11 | 40.39424 | -0.79543 | 35953 ft | 454 kts | 351° |
| 2026-04-21 10:11 | 40.45761 | -0.80236 | 35939 ft | 455 kts | 351° |
| 2026-04-21 10:12 | 40.52049 | -0.80925 | 35940 ft | 455 kts | 351° |
| 2026-04-21 10:12 | 40.58393 | -0.81622 | 35924 ft | 456 kts | 351° |
| 2026-04-21 10:13 | 40.64676 | -0.82314 | 35923 ft | 455 kts | 351° |
| 2026-04-21 10:13 | 40.70995 | -0.83010 | 35923 ft | 454 kts | 351° |
| 2026-04-21 10:14 | 40.77268 | -0.83703 | 35923 ft | 454 kts | 351° |
| 2026-04-21 10:14 | 40.83564 | -0.84401 | 35917 ft | 453 kts | 351° |
| 2026-04-21 10:15 | 40.89874 | -0.85100 | 35914 ft | 453 kts | 351° |
| 2026-04-21 10:15 | 40.96123 | -0.85795 | 35912 ft | 452 kts | 351° |
| 2026-04-21 10:16 | 41.02407 | -0.86495 | 35912 ft | 451 kts | 351° |
| 2026-04-21 10:16 | 41.08641 | -0.87190 | 35908 ft | 451 kts | 351° |
| 2026-04-21 10:17 | 41.14907 | -0.87891 | 35910 ft | 451 kts | 351° |
| 2026-04-21 10:17 | 41.21169 | -0.88592 | 35917 ft | 451 kts | 351° |
| 2026-04-21 10:18 | 41.27395 | -0.89291 | 35915 ft | 451 kts | 351° |
| 2026-04-21 10:18 | 41.33657 | -0.89995 | 35913 ft | 451 kts | 351° |
| 2026-04-21 10:19 | 41.39930 | -0.90701 | 35916 ft | 451 kts | 351° |
| 2026-04-21 10:19 | 41.46161 | -0.91405 | 35919 ft | 451 kts | 351° |
| 2026-04-21 10:20 | 41.52395 | -0.92109 | 35921 ft | 451 kts | 351° |
| 2026-04-21 10:20 | 41.58674 | -0.92821 | 35915 ft | 452 kts | 351° |
| 2026-04-21 10:21 | 41.64919 | -0.93530 | 35912 ft | 452 kts | 351° |
| 2026-04-21 10:21 | 41.71211 | -0.94245 | 35915 ft | 452 kts | 351° |
| 2026-04-21 10:22 | 41.77450 | -0.94956 | 35912 ft | 452 kts | 351° |
| 2026-04-21 10:22 | 41.83740 | -0.95674 | 35925 ft | 452 kts | 351° |
| 2026-04-21 10:23 | 41.89985 | -0.96389 | 35920 ft | 452 kts | 351° |
| 2026-04-21 10:23 | 41.96267 | -0.97109 | 35920 ft | 452 kts | 351° |
| 2026-04-21 10:24 | 42.02534 | -0.97829 | 35924 ft | 452 kts | 351° |
| 2026-04-21 10:24 | 42.08781 | -0.98548 | 35920 ft | 452 kts | 351° |
| 2026-04-21 10:25 | 42.15050 | -0.99270 | 35925 ft | 452 kts | 351° |
| 2026-04-21 10:25 | 42.21317 | -0.99995 | 35926 ft | 452 kts | 351° |
| 2026-04-21 10:26 | 42.27589 | -1.00721 | 35917 ft | 452 kts | 351° |
| 2026-04-21 10:26 | 42.33836 | -1.01446 | 35915 ft | 452 kts | 351° |
| 2026-04-21 10:27 | 42.40122 | -1.02152 | 35916 ft | 452 kts | 352° |
| 2026-04-21 10:27 | 42.46391 | -1.02695 | 35908 ft | 452 kts | 353° |
| 2026-04-21 10:28 | 42.51622 | -1.03117 | 35916 ft | 452 kts | 353° |
| 2026-04-21 10:28 | 42.58937 | -1.03726 | 35914 ft | 452 kts | 353° |
| 2026-04-21 10:29 | 42.64149 | -1.04174 | 35906 ft | 451 kts | 353° |
| 2026-04-21 10:29 | 42.70431 | -1.04720 | 35911 ft | 451 kts | 353° |
| 2026-04-21 10:30 | 42.76658 | -1.05263 | 35895 ft | 451 kts | 353° |
| 2026-04-21 10:30 | 42.82359 | -1.05762 | 35895 ft | 450 kts | 353° |
| 2026-04-21 10:31 | 42.88590 | -1.06306 | 35895 ft | 449 kts | 353° |
| 2026-04-21 10:31 | 42.94841 | -1.06855 | 35900 ft | 449 kts | 353° |
| 2026-04-21 10:32 | 43.01082 | -1.07403 | 35896 ft | 449 kts | 353° |
| 2026-04-21 10:32 | 43.07269 | -1.07949 | 35888 ft | 449 kts | 352° |
| 2026-04-21 10:33 | 43.13529 | -1.08500 | 35885 ft | 449 kts | 352° |
| 2026-04-21 10:33 | 43.19774 | -1.09051 | 35872 ft | 449 kts | 352° |
| 2026-04-21 10:34 | 43.26024 | -1.09605 | 35871 ft | 449 kts | 352° |
| 2026-04-21 10:34 | 43.32227 | -1.10155 | 35865 ft | 449 kts | 352° |
| 2026-04-21 10:35 | 43.38482 | -1.10711 | 35878 ft | 448 kts | 352° |
| 2026-04-21 10:35 | 43.44685 | -1.11264 | 35874 ft | 448 kts | 352° |
| 2026-04-21 10:36 | 43.50922 | -1.11821 | 35888 ft | 448 kts | 352° |
| 2026-04-21 10:36 | 43.57127 | -1.12376 | 35884 ft | 448 kts | 352° |
| 2026-04-21 10:37 | 43.63378 | -1.12936 | 35888 ft | 448 kts | 352° |
| 2026-04-21 10:37 | 43.69580 | -1.13493 | 35887 ft | 448 kts | 352° |
| 2026-04-21 10:38 | 43.75608 | -1.14036 | 35889 ft | 448 kts | 352° |
| 2026-04-21 10:38 | 43.81832 | -1.14597 | 35885 ft | 448 kts | 352° |
| 2026-04-21 10:39 | 43.88030 | -1.15158 | 35877 ft | 448 kts | 352° |
| 2026-04-21 10:39 | 43.94272 | -1.15723 | 35872 ft | 448 kts | 352° |
| 2026-04-21 10:40 | 44.00468 | -1.16285 | 35876 ft | 448 kts | 352° |
| 2026-04-21 10:40 | 44.06700 | -1.16852 | 35872 ft | 448 kts | 352° |
| 2026-04-21 10:41 | 44.12942 | -1.17421 | 35879 ft | 448 kts | 352° |
| 2026-04-21 10:41 | 44.19178 | -1.17991 | 35885 ft | 448 kts | 352° |
| 2026-04-21 10:42 | 44.25377 | -1.18558 | 35879 ft | 448 kts | 352° |
| 2026-04-21 10:42 | 44.31608 | -1.19130 | 35885 ft | 447 kts | 352° |
| 2026-04-21 10:43 | 44.37801 | -1.19699 | 35887 ft | 447 kts | 352° |
| 2026-04-21 10:43 | 44.43983 | -1.20269 | 35887 ft | 447 kts | 352° |
| 2026-04-21 10:44 | 44.50198 | -1.20842 | 35888 ft | 447 kts | 352° |
| 2026-04-21 10:44 | 44.56396 | -1.21416 | 35883 ft | 447 kts | 352° |
| 2026-04-21 10:45 | 44.62615 | -1.21992 | 35887 ft | 446 kts | 352° |
| 2026-04-21 10:45 | 44.68787 | -1.22566 | 35890 ft | 446 kts | 352° |
| 2026-04-21 10:46 | 44.75004 | -1.23145 | 35895 ft | 446 kts | 352° |
| 2026-04-21 10:46 | 44.81161 | -1.23719 | 35908 ft | 446 kts | 352° |
| 2026-04-21 10:47 | 44.87367 | -1.24300 | 35905 ft | 446 kts | 352° |
| 2026-04-21 10:47 | 44.93565 | -1.24880 | 35913 ft | 445 kts | 352° |
| 2026-04-21 10:48 | 44.99718 | -1.25458 | 35917 ft | 445 kts | 351° |
| 2026-04-21 10:48 | 45.05909 | -1.26041 | 35921 ft | 445 kts | 351° |
| 2026-04-21 10:49 | 45.12066 | -1.26622 | 35920 ft | 444 kts | 351° |
| 2026-04-21 10:49 | 45.18251 | -1.27206 | 35920 ft | 444 kts | 351° |
| 2026-04-21 10:50 | 45.24395 | -1.27788 | 35925 ft | 444 kts | 351° |
| 2026-04-21 10:50 | 45.30578 | -1.28375 | 35925 ft | 444 kts | 351° |
| 2026-04-21 10:51 | 45.36718 | -1.28960 | 35924 ft | 444 kts | 351° |
| 2026-04-21 10:51 | 45.42897 | -1.29549 | 35931 ft | 444 kts | 351° |
| 2026-04-21 10:52 | 45.49073 | -1.30139 | 35931 ft | 444 kts | 351° |
| 2026-04-21 10:52 | 45.55203 | -1.30726 | 35936 ft | 444 kts | 351° |
| 2026-04-21 10:53 | 45.61377 | -1.31319 | 35941 ft | 444 kts | 351° |
| 2026-04-21 10:53 | 45.67516 | -1.31909 | 35939 ft | 444 kts | 351° |
| 2026-04-21 10:54 | 45.73692 | -1.32505 | 35943 ft | 444 kts | 351° |
| 2026-04-21 10:54 | 45.79824 | -1.33097 | 35944 ft | 444 kts | 351° |
| 2026-04-21 10:55 | 45.85988 | -1.33694 | 35956 ft | 444 kts | 351° |
| 2026-04-21 10:55 | 45.92162 | -1.34293 | 35968 ft | 444 kts | 351° |
| 2026-04-21 10:56 | 45.98339 | -1.34894 | 35978 ft | 444 kts | 351° |
| 2026-04-21 10:56 | 46.04476 | -1.35492 | 35984 ft | 444 kts | 351° |
| 2026-04-21 10:57 | 46.10650 | -1.36095 | 35993 ft | 444 kts | 351° |
| 2026-04-21 10:57 | 46.16825 | -1.36700 | 35992 ft | 443 kts | 351° |
| 2026-04-21 10:58 | 46.22946 | -1.37300 | 35992 ft | 443 kts | 351° |
| 2026-04-21 10:58 | 46.29103 | -1.37906 | 35992 ft | 443 kts | 351° |
| 2026-04-21 10:59 | 46.35234 | -1.38510 | 35987 ft | 442 kts | 351° |
| 2026-04-21 10:59 | 46.41390 | -1.39119 | 35986 ft | 442 kts | 351° |
| 2026-04-21 11:00 | 46.47545 | -1.39728 | 36006 ft | 442 kts | 350° |
| 2026-04-21 11:00 | 46.53685 | -1.40338 | 36014 ft | 442 kts | 350° |
| 2026-04-21 11:01 | 46.59809 | -1.40947 | 36025 ft | 442 kts | 350° |
| 2026-04-21 11:01 | 46.65962 | -1.41560 | 36029 ft | 442 kts | 350° |
| 2026-04-21 11:02 | 46.75148 | -1.42479 | 36029 ft | 442 kts | 350° |
| 2026-04-21 11:02 | 46.81284 | -1.43094 | 36014 ft | 442 kts | 350° |
| 2026-04-21 11:03 | 46.87402 | -1.43708 | 36013 ft | 441 kts | 349° |
| 2026-04-21 11:03 | 46.93530 | -1.44325 | 36022 ft | 441 kts | 350° |
| 2026-04-21 11:04 | 46.99633 | -1.44941 | 36045 ft | 441 kts | 350° |
| 2026-04-21 11:04 | 47.05774 | -1.45563 | 36053 ft | 441 kts | 350° |
| 2026-04-21 11:05 | 47.11851 | -1.46180 | 36047 ft | 441 kts | 350° |
| 2026-04-21 11:05 | 47.17974 | -1.46802 | 36054 ft | 441 kts | 350° |
| 2026-04-21 11:06 | 47.24112 | -1.47428 | 36048 ft | 441 kts | 350° |
| 2026-04-21 11:06 | 47.30233 | -1.48052 | 36048 ft | 440 kts | 350° |
| 2026-04-21 11:07 | 47.36356 | -1.48679 | 36044 ft | 440 kts | 350° |
| 2026-04-21 11:07 | 47.42442 | -1.49304 | 36049 ft | 440 kts | 350° |
| 2026-04-21 11:08 | 47.48548 | -1.49932 | 36050 ft | 440 kts | 350° |
| 2026-04-21 11:08 | 47.54632 | -1.50559 | 36061 ft | 439 kts | 351° |
| 2026-04-21 11:09 | 47.60747 | -1.51191 | 36070 ft | 439 kts | 351° |
| 2026-04-21 11:09 | 47.66842 | -1.51822 | 36073 ft | 439 kts | 351° |
| 2026-04-21 11:10 | 47.72951 | -1.52457 | 36077 ft | 440 kts | 351° |
| 2026-04-21 11:10 | 47.79022 | -1.53088 | 36084 ft | 440 kts | 351° |
| 2026-04-21 11:11 | 47.85131 | -1.53725 | 36093 ft | 439 kts | 351° |
| 2026-04-21 11:11 | 47.90208 | -1.54256 | 36101 ft | 440 kts | 351° |
| 2026-04-21 11:12 | 47.97314 | -1.55001 | 36102 ft | 440 kts | 351° |
| 2026-04-21 11:12 | 48.02443 | -1.55539 | 36105 ft | 440 kts | 351° |
| 2026-04-21 11:13 | 48.08551 | -1.56182 | 36103 ft | 440 kts | 351° |
| 2026-04-21 11:13 | 48.14633 | -1.56824 | 36112 ft | 440 kts | 351° |
| 2026-04-21 11:14 | 48.20762 | -1.57472 | 36107 ft | 440 kts | 351° |
| 2026-04-21 11:14 | 48.26847 | -1.58117 | 36113 ft | 440 kts | 351° |
| 2026-04-21 11:15 | 48.32950 | -1.58764 | 36107 ft | 435 kts | 351° |
| 2026-04-21 11:15 | 48.35939 | -1.59076 | 36102 ft | 422 kts | 351° |
| 2026-04-21 11:15 | 48.38844 | -1.59379 | 36114 ft | 414 kts | 351° |
| 2026-04-21 11:16 | 48.44583 | -1.59996 | 36011 ft | 415 kts | 351° |
| 2026-04-21 11:16 | 48.47421 | -1.60303 | 35700 ft | 411 kts | 350° |
| 2026-04-21 11:16 | 48.50292 | -1.60611 | 35316 ft | 411 kts | 350° |
| 2026-04-21 11:17 | 48.53137 | -1.60916 | 34942 ft | 407 kts | 350° |
| 2026-04-21 11:17 | 48.55953 | -1.61217 | 34558 ft | 404 kts | 349° |
| 2026-04-21 11:17 | 48.58715 | -1.61513 | 34193 ft | 401 kts | 349° |
| 2026-04-21 11:17 | 48.61493 | -1.61811 | 33765 ft | 398 kts | 349° |
| 2026-04-21 11:18 | 48.64246 | -1.62108 | 33351 ft | 394 kts | 349° |
| 2026-04-21 11:18 | 48.66975 | -1.62401 | 32977 ft | 390 kts | 349° |
| 2026-04-21 11:18 | 48.69673 | -1.62691 | 32612 ft | 386 kts | 349° |
| 2026-04-21 11:18 | 48.72314 | -1.62996 | 32237 ft | 382 kts | 348° |
| 2026-04-21 11:19 | 48.74939 | -1.63424 | 31871 ft | 377 kts | 346° |
| 2026-04-21 11:19 | 48.77532 | -1.63914 | 31513 ft | 374 kts | 346° |
| 2026-04-21 11:19 | 48.80111 | -1.64419 | 31161 ft | 370 kts | 346° |
| 2026-04-21 11:19 | 48.82660 | -1.64917 | 30818 ft | 367 kts | 346° |
| 2026-04-21 11:20 | 48.85189 | -1.65404 | 30469 ft | 365 kts | 346° |
| 2026-04-21 11:20 | 48.87704 | -1.65882 | 30105 ft | 362 kts | 346° |
| 2026-04-21 11:20 | 48.90172 | -1.66345 | 29712 ft | 359 kts | 346° |
| 2026-04-21 11:20 | 48.92637 | -1.66804 | 29365 ft | 354 kts | 346° |
| 2026-04-21 11:21 | 48.95073 | -1.67255 | 29012 ft | 350 kts | 346° |
| 2026-04-21 11:21 | 48.97485 | -1.67702 | 28638 ft | 347 kts | 346° |
| 2026-04-21 11:21 | 48.99870 | -1.68143 | 28308 ft | 343 kts | 346° |
| 2026-04-21 11:21 | 49.02236 | -1.68582 | 27939 ft | 340 kts | 346° |
| 2026-04-21 11:22 | 49.04549 | -1.69011 | 27614 ft | 337 kts | 346° |
| 2026-04-21 11:22 | 49.06885 | -1.69444 | 27259 ft | 334 kts | 346° |
| 2026-04-21 11:22 | 49.09176 | -1.69870 | 26902 ft | 330 kts | 347° |
| 2026-04-21 11:22 | 49.11400 | -1.70283 | 26598 ft | 327 kts | 347° |
| 2026-04-21 11:23 | 49.13653 | -1.70702 | 26269 ft | 324 kts | 347° |
| 2026-04-21 11:23 | 49.15892 | -1.71120 | 25944 ft | 322 kts | 347° |
| 2026-04-21 11:23 | 49.18111 | -1.71534 | 25623 ft | 320 kts | 347° |
| 2026-04-21 11:23 | 49.20292 | -1.71941 | 25301 ft | 318 kts | 347° |
| 2026-04-21 11:24 | 49.22482 | -1.72350 | 24983 ft | 316 kts | 347° |
| 2026-04-21 11:24 | 49.24660 | -1.72758 | 24660 ft | 314 kts | 347° |
| 2026-04-21 11:24 | 49.26828 | -1.73163 | 24346 ft | 313 kts | 347° |
| 2026-04-21 11:24 | 49.28981 | -1.73567 | 24028 ft | 311 kts | 347° |
| 2026-04-21 11:25 | 49.31131 | -1.73970 | 23703 ft | 310 kts | 347° |
| 2026-04-21 11:25 | 49.33190 | -1.74356 | 23352 ft | 310 kts | 347° |
| 2026-04-21 11:25 | 49.35398 | -1.74778 | 23039 ft | 327 kts | 347° |
| 2026-04-21 11:25 | 49.37680 | -1.75214 | 22673 ft | 332 kts | 347° |
| 2026-04-21 11:26 | 49.39977 | -1.75646 | 22320 ft | 332 kts | 348° |
| 2026-04-21 11:26 | 49.42243 | -1.76069 | 21999 ft | 331 kts | 348° |
| 2026-04-21 11:26 | 49.44562 | -1.76503 | 21639 ft | 330 kts | 348° |
| 2026-04-21 11:26 | 49.46835 | -1.76928 | 21302 ft | 327 kts | 348° |
| 2026-04-21 11:27 | 49.49061 | -1.77346 | 20968 ft | 324 kts | 348° |
| 2026-04-21 11:27 | 49.51290 | -1.77765 | 20639 ft | 321 kts | 348° |
| 2026-04-21 11:27 | 49.53504 | -1.78182 | 20309 ft | 319 kts | 349° |
| 2026-04-21 11:27 | 49.55703 | -1.78598 | 19980 ft | 316 kts | 349° |
| 2026-04-21 11:28 | 49.57882 | -1.79010 | 19674 ft | 314 kts | 349° |
| 2026-04-21 11:28 | 49.60039 | -1.79419 | 19345 ft | 311 kts | 349° |
| 2026-04-21 11:28 | 49.62189 | -1.79827 | 19026 ft | 309 kts | 349° |
| 2026-04-21 11:28 | 49.64299 | -1.80228 | 18715 ft | 307 kts | 350° |
| 2026-04-21 11:29 | 49.66419 | -1.80630 | 18382 ft | 305 kts | 350° |
| 2026-04-21 11:29 | 49.68525 | -1.81031 | 18030 ft | 303 kts | 350° |
| 2026-04-21 11:29 | 49.70605 | -1.81427 | 17713 ft | 300 kts | 350° |
| 2026-04-21 11:29 | 49.72663 | -1.81819 | 17399 ft | 297 kts | 350° |
| 2026-04-21 11:30 | 49.74708 | -1.82208 | 17093 ft | 294 kts | 351° |
| 2026-04-21 11:30 | 49.76730 | -1.82594 | 16784 ft | 291 kts | 350° |
| 2026-04-21 11:30 | 49.78712 | -1.82973 | 16483 ft | 289 kts | 350° |
| 2026-04-21 11:30 | 49.80703 | -1.83354 | 16185 ft | 286 kts | 351° |
| 2026-04-21 11:31 | 49.82674 | -1.83731 | 15882 ft | 284 kts | 351° |
| 2026-04-21 11:31 | 49.84629 | -1.84105 | 15585 ft | 282 kts | 351° |
| 2026-04-21 11:31 | 49.86547 | -1.84473 | 15294 ft | 280 kts | 351° |
| 2026-04-21 11:31 | 49.88475 | -1.84843 | 15001 ft | 278 kts | 351° |
| 2026-04-21 11:32 | 49.90392 | -1.85212 | 14711 ft | 276 kts | 351° |
| 2026-04-21 11:32 | 49.92292 | -1.85577 | 14419 ft | 275 kts | 352° |
| 2026-04-21 11:32 | 49.94185 | -1.85941 | 14127 ft | 273 kts | 352° |
| 2026-04-21 11:32 | 49.96053 | -1.86301 | 13815 ft | 273 kts | 352° |
| 2026-04-21 11:33 | 49.98006 | -1.86678 | 13527 ft | 287 kts | 352° |
| 2026-04-21 11:33 | 49.99989 | -1.87060 | 13186 ft | 287 kts | 353° |
| 2026-04-21 11:33 | 50.01968 | -1.87441 | 12879 ft | 284 kts | 353° |
| 2026-04-21 11:33 | 50.03935 | -1.87821 | 12438 ft | 286 kts | 353° |
| 2026-04-21 11:34 | 50.05927 | -1.88206 | 12011 ft | 288 kts | 353° |
| 2026-04-21 11:34 | 50.07893 | -1.88586 | 11668 ft | 287 kts | 353° |
| 2026-04-21 11:34 | 50.09884 | -1.88971 | 11340 ft | 286 kts | 354° |
| 2026-04-21 11:34 | 50.11858 | -1.89353 | 11023 ft | 284 kts | 354° |
| 2026-04-21 11:35 | 50.13794 | -1.89729 | 10717 ft | 283 kts | 354° |
| 2026-04-21 11:35 | 50.15753 | -1.90109 | 10412 ft | 282 kts | 354° |
| 2026-04-21 11:35 | 50.17666 | -1.90481 | 10117 ft | 280 kts | 355° |
| 2026-04-21 11:35 | 50.19608 | -1.90859 | 9974 ft | 272 kts | 355° |
| 2026-04-21 11:36 | 50.21470 | -1.91222 | 9655 ft | 271 kts | 355° |
| 2026-04-21 11:36 | 50.23342 | -1.91587 | 9369 ft | 269 kts | 355° |
| 2026-04-21 11:36 | 50.25180 | -1.91946 | 9083 ft | 267 kts | 355° |
| 2026-04-21 11:36 | 50.27032 | -1.92306 | 8797 ft | 265 kts | 356° |
| 2026-04-21 11:37 | 50.28859 | -1.92661 | 8513 ft | 263 kts | 356° |
| 2026-04-21 11:37 | 50.30656 | -1.93013 | 8247 ft | 262 kts | 357° |
| 2026-04-21 11:37 | 50.32460 | -1.93367 | 7963 ft | 260 kts | 357° |
| 2026-04-21 11:37 | 50.34261 | -1.93718 | 7688 ft | 259 kts | 358° |
| 2026-04-21 11:38 | 50.36053 | -1.94066 | 7405 ft | 262 kts | 357° |
| 2026-04-21 11:38 | 50.37064 | -1.94261 | 7267 ft | 264 kts | 358° |
| 2026-04-21 11:38 | 50.38834 | -1.94605 | 6976 ft | 263 kts | 357° |
| 2026-04-21 11:38 | 50.40622 | -1.94957 | 6706 ft | 262 kts | 358° |
| 2026-04-21 11:39 | 50.42429 | -1.95313 | 6405 ft | 261 kts | 357° |
| 2026-04-21 11:39 | 50.44227 | -1.95667 | 6112 ft | 260 kts | 358° |
| 2026-04-21 11:39 | 50.46022 | -1.96019 | 5826 ft | 259 kts | 358° |
| 2026-04-21 11:39 | 50.47806 | -1.96370 | 5552 ft | 257 kts | 358° |
| 2026-04-21 11:40 | 50.49579 | -1.96720 | 5260 ft | 256 kts | 358° |
| 2026-04-21 11:40 | 50.51341 | -1.97068 | 4996 ft | 255 kts | 358° |
| 2026-04-21 11:40 | 50.53105 | -1.97416 | 4714 ft | 253 kts | 358° |
| 2026-04-21 11:40 | 50.54820 | -1.97754 | 4454 ft | 251 kts | 358° |
| 2026-04-21 11:41 | 50.56544 | -1.98095 | 4167 ft | 249 kts | 358° |
| 2026-04-21 11:41 | 50.58260 | -1.98433 | 3911 ft | 247 kts | 358° |
| 2026-04-21 11:41 | 50.59965 | -1.98771 | 3675 ft | 244 kts | 358° |
| 2026-04-21 11:41 | 50.61620 | -1.99100 | 3601 ft | 236 kts | 358° |
| 2026-04-21 11:42 | 50.63233 | -1.99421 | 3472 ft | 229 kts | 358° |
| 2026-04-21 11:42 | 50.64769 | -1.99726 | 3377 ft | 222 kts | 359° |
| 2026-04-21 11:42 | 50.66275 | -2.00025 | 3273 ft | 213 kts | 359° |
| 2026-04-21 11:42 | 50.67719 | -2.00313 | 3178 ft | 204 kts | 359° |
| 2026-04-21 11:43 | 50.69095 | -2.00585 | 2968 ft | 198 kts | 359° |
| 2026-04-21 11:43 | 50.70447 | -2.00853 | 2749 ft | 193 kts | 360° |
| 2026-04-21 11:43 | 50.71760 | -2.01114 | 2568 ft | 187 kts | 359° |
| 2026-04-21 11:43 | 50.73034 | -2.01367 | 2382 ft | 182 kts | 359° |
| 2026-04-21 11:44 | 50.74270 | -2.01445 | 2110 ft | 172 kts | 21° |
| 2026-04-21 11:44 | 50.75170 | -2.00439 | 1961 ft | 157 kts | 58° |
| 2026-04-21 11:44 | 50.75541 | -1.98815 | 1750 ft | 158 kts | 76° |
| 2026-04-21 11:44 | 50.75840 | -1.97144 | 1572 ft | 159 kts | 74° |
| 2026-04-21 11:45 | 50.76139 | -1.95496 | 1441 ft | 155 kts | 76° |
| 2026-04-21 11:45 | 50.76407 | -1.93910 | 1235 ft | 147 kts | 75° |
| 2026-04-21 11:45 | 50.76656 | -1.92408 | 1053 ft | 135 kts | 75° |
| 2026-04-21 11:45 | 50.76868 | -1.91114 | 879 ft | 127 kts | 74° |
| 2026-04-21 11:46 | 50.77045 | -1.90065 | 699 ft | 119 kts | 73° |
| 2026-04-21 11:46 | 50.77260 | -1.88770 | 559 ft | 126 kts | 75° |
| 2026-04-21 11:46 | 50.77478 | -1.87447 | 366 ft | 127 kts | 72° |
| 2026-04-21 11:46 | 50.77699 | -1.86084 | 223 ft | 126 kts | 73° |
| 2026-04-21 11:47 | 50.77912 | -1.84819 | 46 ft | 121 kts | 73° |
| 2026-04-21 11:47 | 50.78055 | -1.83972 | 43 ft | 86 kts | 75° |
| 2026-04-21 11:47 | 50.78159 | -1.83340 | 44 ft | 31 kts | 75° |
| 2026-04-21 11:47 | 50.78198 | -1.83112 | 45 ft | 12 kts | 75° |
| 2026-04-21 11:48 | 50.78183 | -1.83049 | 45 ft | 6 kts | 150° |
| 2026-04-21 11:48 | 50.78142 | -1.83057 | 42 ft | 6 kts | 220° |
| 2026-04-21 11:48 | 50.78116 | -1.83114 | 45 ft | 6 kts | 236° |
| 2026-04-21 11:48 | 50.78087 | -1.83182 | 45 ft | 9 kts | 235° |
| 2026-04-21 11:49 | 50.78054 | -1.83263 | 46 ft | 9 kts | 242° |
| 2026-04-21 11:49 | 50.78027 | -1.83347 | 45 ft | 8 kts | 243° |
| 2026-04-21 11:49 | 50.78000 | -1.83426 | 44 ft | 8 kts | 237° |
| 2026-04-21 11:49 | 50.77958 | -1.83484 | 45 ft | 8 kts | 201° |
| 2026-04-21 11:50 | 50.77904 | -1.83487 | 45 ft | 8 kts | 174° |
| 2026-04-21 11:50 | 50.77856 | -1.83473 | 45 ft | 6 kts | 155° |
| 2026-04-21 11:50 | 50.77845 | -1.83412 | 45 ft | 6 kts | 88° |
| 2026-04-21 11:50 | 50.77845 | -1.83384 | 45 ft | 0 kts | 88° |